sensor_id;sensor_type;location;lat;lon;timestamp;P1;durP1;ratioP1;P2;durP2;ratioP2
549;SDS011;20066;48.764;9.176;2022-11-15T00:01:09;9.10;;;4.53;;
549;SDS011;20066;48.764;9.176;2022-11-15T00:03:43;8.55;;;4.80;;
549;SDS011;20066;48.764;9.176;2022-11-15T00:06:11;8.52;;;4.30;;
549;SDS011;20066;48.764;9.176;2022-11-15T00:08:39;6.55;;;4.30;;
549;SDS011;20066;48.764;9.176;2022-11-15T00:11:08;6.35;;;4.20;;
549;SDS011;20066;48.764;9.176;2022-11-15T00:13:38;13.32;;;5.03;;
549;SDS011;20066;48.764;9.176;2022-11-15T00:16:06;9.35;;;4.15;;
549;SDS011;20066;48.764;9.176;2022-11-15T00:18:37;9.80;;;4.82;;
549;SDS011;20066;48.764;9.176;2022-11-15T00:21:05;9.85;;;3.67;;
549;SDS011;20066;48.764;9.176;2022-11-15T00:23:34;9.60;;;4.75;;
549;SDS011;20066;48.764;9.176;2022-11-15T00:26:02;9.68;;;4.07;;
549;SDS011;20066;48.764;9.176;2022-11-15T00:28:31;8.80;;;4.07;;
549;SDS011;20066;48.764;9.176;2022-11-15T00:31:03;7.50;;;4.50;;
549;SDS011;20066;48.764;9.176;2022-11-15T00:33:33;8.80;;;4.63;;
549;SDS011;20066;48.764;9.176;2022-11-15T00:36:01;10.13;;;5.57;;
549;SDS011;20066;48.764;9.176;2022-11-15T00:38:31;9.57;;;5.43;;
549;SDS011;20066;48.764;9.176;2022-11-15T00:41:00;10.23;;;5.00;;
549;SDS011;20066;48.764;9.176;2022-11-15T00:43:34;12.25;;;4.68;;
549;SDS011;20066;48.764;9.176;2022-11-15T00:46:04;11.55;;;4.50;;
549;SDS011;20066;48.764;9.176;2022-11-15T00:48:31;10.50;;;4.25;;
549;SDS011;20066;48.764;9.176;2022-11-15T00:50:59;12.25;;;4.53;;
549;SDS011;20066;48.764;9.176;2022-11-15T00:53:27;7.65;;;3.95;;
549;SDS011;20066;48.764;9.176;2022-11-15T00:55:55;8.68;;;3.58;;
549;SDS011;20066;48.764;9.176;2022-11-15T00:58:23;6.80;;;4.10;;
549;SDS011;20066;48.764;9.176;2022-11-15T01:00:51;6.32;;;3.33;;
549;SDS011;20066;48.764;9.176;2022-11-15T01:03:20;8.90;;;4.05;;
549;SDS011;20066;48.764;9.176;2022-11-15T01:05:48;6.60;;;3.15;;
549;SDS011;20066;48.764;9.176;2022-11-15T01:08:16;7.93;;;3.88;;
549;SDS011;20066;48.764;9.176;2022-11-15T01:10:44;6.75;;;3.25;;
549;SDS011;20066;48.764;9.176;2022-11-15T01:13:11;6.63;;;3.63;;
549;SDS011;20066;48.764;9.176;2022-11-15T01:15:39;5.25;;;3.10;;
549;SDS011;20066;48.764;9.176;2022-11-15T01:18:08;11.68;;;3.90;;
549;SDS011;20066;48.764;9.176;2022-11-15T01:20:40;10.38;;;3.42;;
549;SDS011;20066;48.764;9.176;2022-11-15T01:23:08;6.93;;;3.53;;
549;SDS011;20066;48.764;9.176;2022-11-15T01:25:37;8.23;;;3.67;;
549;SDS011;20066;48.764;9.176;2022-11-15T01:28:05;8.63;;;4.00;;
549;SDS011;20066;48.764;9.176;2022-11-15T01:30:33;7.28;;;3.40;;
549;SDS011;20066;48.764;9.176;2022-11-15T01:33:00;6.53;;;3.30;;
549;SDS011;20066;48.764;9.176;2022-11-15T01:35:28;6.15;;;3.80;;
549;SDS011;20066;48.764;9.176;2022-11-15T01:37:57;7.25;;;3.80;;
549;SDS011;20066;48.764;9.176;2022-11-15T01:40:25;9.52;;;3.95;;
549;SDS011;20066;48.764;9.176;2022-11-15T01:42:53;7.53;;;3.42;;
549;SDS011;20066;48.764;9.176;2022-11-15T01:45:21;7.20;;;3.70;;
549;SDS011;20066;48.764;9.176;2022-11-15T01:47:49;9.25;;;4.40;;
549;SDS011;20066;48.764;9.176;2022-11-15T01:50:20;7.63;;;4.05;;
549;SDS011;20066;48.764;9.176;2022-11-15T01:52:53;5.20;;;3.67;;
549;SDS011;20066;48.764;9.176;2022-11-15T01:55:24;6.22;;;3.88;;
549;SDS011;20066;48.764;9.176;2022-11-15T01:57:55;9.68;;;4.00;;
549;SDS011;20066;48.764;9.176;2022-11-15T02:00:27;9.15;;;4.60;;
549;SDS011;20066;48.764;9.176;2022-11-15T02:02:56;11.05;;;3.88;;
549;SDS011;20066;48.764;9.176;2022-11-15T02:05:24;9.80;;;3.67;;
549;SDS011;20066;48.764;9.176;2022-11-15T02:07:53;8.15;;;3.53;;
549;SDS011;20066;48.764;9.176;2022-11-15T02:10:23;5.40;;;3.67;;
549;SDS011;20066;48.764;9.176;2022-11-15T02:12:52;8.82;;;3.97;;
549;SDS011;20066;48.764;9.176;2022-11-15T02:15:21;6.22;;;3.67;;
549;SDS011;20066;48.764;9.176;2022-11-15T02:17:57;7.35;;;3.60;;
549;SDS011;20066;48.764;9.176;2022-11-15T02:20:42;9.55;;;3.90;;
549;SDS011;20066;48.764;9.176;2022-11-15T02:23:26;7.22;;;3.25;;
549;SDS011;20066;48.764;9.176;2022-11-15T02:26:19;7.07;;;4.20;;
549;SDS011;20066;48.764;9.176;2022-11-15T02:29:08;7.43;;;3.80;;
549;SDS011;20066;48.764;9.176;2022-11-15T02:31:41;6.20;;;4.20;;
549;SDS011;20066;48.764;9.176;2022-11-15T02:34:19;8.77;;;3.80;;
549;SDS011;20066;48.764;9.176;2022-11-15T02:36:55;5.97;;;3.95;;
549;SDS011;20066;48.764;9.176;2022-11-15T02:39:35;8.55;;;3.75;;
549;SDS011;20066;48.764;9.176;2022-11-15T02:42:11;7.63;;;3.60;;
549;SDS011;20066;48.764;9.176;2022-11-15T02:45:03;7.50;;;3.10;;
549;SDS011;20066;48.764;9.176;2022-11-15T02:47:37;4.60;;;3.05;;
549;SDS011;20066;48.764;9.176;2022-11-15T02:50:10;5.07;;;2.85;;
549;SDS011;20066;48.764;9.176;2022-11-15T02:52:39;5.97;;;3.53;;
549;SDS011;20066;48.764;9.176;2022-11-15T02:57:56;5.95;;;3.92;;
549;SDS011;20066;48.764;9.176;2022-11-15T03:00:38;9.82;;;4.43;;
549;SDS011;20066;48.764;9.176;2022-11-15T03:03:20;9.35;;;4.28;;
549;SDS011;20066;48.764;9.176;2022-11-15T03:06:00;8.02;;;3.63;;
549;SDS011;20066;48.764;9.176;2022-11-15T03:08:37;6.80;;;3.85;;
549;SDS011;20066;48.764;9.176;2022-11-15T03:11:13;7.50;;;3.67;;
549;SDS011;20066;48.764;9.176;2022-11-15T03:13:43;8.27;;;4.28;;
549;SDS011;20066;48.764;9.176;2022-11-15T03:16:18;9.48;;;4.00;;
549;SDS011;20066;48.764;9.176;2022-11-15T03:18:54;5.88;;;3.35;;
549;SDS011;20066;48.764;9.176;2022-11-15T03:21:26;7.93;;;2.88;;
549;SDS011;20066;48.764;9.176;2022-11-15T03:23:57;5.82;;;2.80;;
549;SDS011;20066;48.764;9.176;2022-11-15T03:26:28;6.32;;;3.45;;
549;SDS011;20066;48.764;9.176;2022-11-15T03:28:57;6.53;;;3.58;;
549;SDS011;20066;48.764;9.176;2022-11-15T03:31:31;6.43;;;3.35;;
549;SDS011;20066;48.764;9.176;2022-11-15T03:34:20;5.75;;;2.90;;
549;SDS011;20066;48.764;9.176;2022-11-15T03:36:53;7.90;;;3.88;;
549;SDS011;20066;48.764;9.176;2022-11-15T03:39:21;6.05;;;3.42;;
549;SDS011;20066;48.764;9.176;2022-11-15T03:41:52;9.63;;;3.45;;
549;SDS011;20066;48.764;9.176;2022-11-15T03:44:34;12.70;;;4.53;;
549;SDS011;20066;48.764;9.176;2022-11-15T03:47:08;6.75;;;3.03;;
549;SDS011;20066;48.764;9.176;2022-11-15T03:49:42;6.90;;;3.30;;
549;SDS011;20066;48.764;9.176;2022-11-15T03:52:14;5.25;;;2.90;;
549;SDS011;20066;48.764;9.176;2022-11-15T03:54:52;10.02;;;3.60;;
549;SDS011;20066;48.764;9.176;2022-11-15T03:57:22;7.32;;;3.30;;
549;SDS011;20066;48.764;9.176;2022-11-15T03:59:50;7.18;;;3.42;;
549;SDS011;20066;48.764;9.176;2022-11-15T04:02:17;10.23;;;3.75;;
549;SDS011;20066;48.764;9.176;2022-11-15T04:04:46;13.68;;;4.57;;
549;SDS011;20066;48.764;9.176;2022-11-15T04:07:14;9.27;;;4.10;;
549;SDS011;20066;48.764;9.176;2022-11-15T04:09:42;9.18;;;4.07;;
549;SDS011;20066;48.764;9.176;2022-11-15T04:12:28;9.52;;;4.45;;
549;SDS011;20066;48.764;9.176;2022-11-15T04:14:59;10.90;;;4.13;;
549;SDS011;20066;48.764;9.176;2022-11-15T04:17:35;7.47;;;4.18;;
549;SDS011;20066;48.764;9.176;2022-11-15T04:20:07;9.10;;;3.78;;
549;SDS011;20066;48.764;9.176;2022-11-15T04:22:54;4.68;;;3.15;;
549;SDS011;20066;48.764;9.176;2022-11-15T04:25:40;7.45;;;3.22;;
549;SDS011;20066;48.764;9.176;2022-11-15T04:28:08;4.47;;;2.70;;
549;SDS011;20066;48.764;9.176;2022-11-15T04:30:36;7.68;;;3.72;;
549;SDS011;20066;48.764;9.176;2022-11-15T04:33:04;8.00;;;3.72;;
549;SDS011;20066;48.764;9.176;2022-11-15T04:35:33;5.75;;;3.47;;
549;SDS011;20066;48.764;9.176;2022-11-15T04:38:01;6.60;;;3.88;;
549;SDS011;20066;48.764;9.176;2022-11-15T04:40:30;13.13;;;4.13;;
549;SDS011;20066;48.764;9.176;2022-11-15T04:42:58;5.53;;;3.20;;
549;SDS011;20066;48.764;9.176;2022-11-15T04:45:29;6.78;;;3.47;;
549;SDS011;20066;48.764;9.176;2022-11-15T04:47:57;6.32;;;3.75;;
549;SDS011;20066;48.764;9.176;2022-11-15T04:50:25;7.53;;;3.50;;
549;SDS011;20066;48.764;9.176;2022-11-15T04:52:54;6.90;;;3.85;;
549;SDS011;20066;48.764;9.176;2022-11-15T04:55:21;7.88;;;3.85;;
549;SDS011;20066;48.764;9.176;2022-11-15T04:57:56;8.15;;;4.10;;
549;SDS011;20066;48.764;9.176;2022-11-15T05:00:26;6.30;;;3.10;;
549;SDS011;20066;48.764;9.176;2022-11-15T05:02:56;10.05;;;3.22;;
549;SDS011;20066;48.764;9.176;2022-11-15T05:05:41;8.82;;;3.67;;
549;SDS011;20066;48.764;9.176;2022-11-15T05:08:11;5.40;;;3.50;;
549;SDS011;20066;48.764;9.176;2022-11-15T05:10:38;6.30;;;3.58;;
549;SDS011;20066;48.764;9.176;2022-11-15T05:13:06;5.63;;;2.80;;
549;SDS011;20066;48.764;9.176;2022-11-15T05:15:37;6.82;;;3.05;;
549;SDS011;20066;48.764;9.176;2022-11-15T05:18:05;6.05;;;3.40;;
549;SDS011;20066;48.764;9.176;2022-11-15T05:20:32;9.65;;;4.18;;
549;SDS011;20066;48.764;9.176;2022-11-15T05:23:00;8.75;;;4.25;;
549;SDS011;20066;48.764;9.176;2022-11-15T05:25:29;6.40;;;3.25;;
549;SDS011;20066;48.764;9.176;2022-11-15T05:27:57;7.68;;;3.25;;
549;SDS011;20066;48.764;9.176;2022-11-15T05:30:25;5.65;;;3.50;;
549;SDS011;20066;48.764;9.176;2022-11-15T05:32:53;6.15;;;3.50;;
549;SDS011;20066;48.764;9.176;2022-11-15T05:35:22;9.52;;;3.50;;
549;SDS011;20066;48.764;9.176;2022-11-15T05:37:58;6.40;;;2.97;;
549;SDS011;20066;48.764;9.176;2022-11-15T05:40:26;4.85;;;2.95;;
549;SDS011;20066;48.764;9.176;2022-11-15T05:42:56;5.25;;;3.10;;
549;SDS011;20066;48.764;9.176;2022-11-15T05:45:24;5.10;;;3.05;;
549;SDS011;20066;48.764;9.176;2022-11-15T05:47:52;4.97;;;3.15;;
549;SDS011;20066;48.764;9.176;2022-11-15T05:50:24;6.32;;;3.35;;
549;SDS011;20066;48.764;9.176;2022-11-15T05:52:52;5.95;;;2.90;;
549;SDS011;20066;48.764;9.176;2022-11-15T05:55:28;5.07;;;2.88;;
549;SDS011;20066;48.764;9.176;2022-11-15T05:57:58;5.72;;;3.13;;
549;SDS011;20066;48.764;9.176;2022-11-15T06:00:26;7.82;;;3.47;;
549;SDS011;20066;48.764;9.176;2022-11-15T06:02:55;7.60;;;3.28;;
549;SDS011;20066;48.764;9.176;2022-11-15T06:05:23;6.45;;;3.45;;
549;SDS011;20066;48.764;9.176;2022-11-15T06:07:51;6.75;;;3.00;;
549;SDS011;20066;48.764;9.176;2022-11-15T06:10:18;7.22;;;3.42;;
549;SDS011;20066;48.764;9.176;2022-11-15T06:12:46;7.75;;;3.72;;
549;SDS011;20066;48.764;9.176;2022-11-15T06:15:15;6.95;;;3.30;;
549;SDS011;20066;48.764;9.176;2022-11-15T06:17:43;9.23;;;3.75;;
549;SDS011;20066;48.764;9.176;2022-11-15T06:20:11;9.10;;;3.70;;
549;SDS011;20066;48.764;9.176;2022-11-15T06:22:39;6.90;;;3.78;;
549;SDS011;20066;48.764;9.176;2022-11-15T06:25:07;5.97;;;3.08;;
549;SDS011;20066;48.764;9.176;2022-11-15T06:27:35;5.55;;;3.03;;
549;SDS011;20066;48.764;9.176;2022-11-15T06:30:03;6.55;;;3.33;;
549;SDS011;20066;48.764;9.176;2022-11-15T06:32:33;8.32;;;4.03;;
549;SDS011;20066;48.764;9.176;2022-11-15T06:35:01;6.30;;;3.53;;
549;SDS011;20066;48.764;9.176;2022-11-15T06:37:29;8.80;;;4.10;;
549;SDS011;20066;48.764;9.176;2022-11-15T06:39:57;11.45;;;4.57;;
549;SDS011;20066;48.764;9.176;2022-11-15T06:42:25;10.20;;;3.80;;
549;SDS011;20066;48.764;9.176;2022-11-15T06:44:52;9.75;;;4.20;;
549;SDS011;20066;48.764;9.176;2022-11-15T06:47:20;9.27;;;4.22;;
549;SDS011;20066;48.764;9.176;2022-11-15T06:49:50;7.20;;;4.32;;
549;SDS011;20066;48.764;9.176;2022-11-15T06:52:18;7.65;;;3.90;;
549;SDS011;20066;48.764;9.176;2022-11-15T06:54:45;7.85;;;4.13;;
549;SDS011;20066;48.764;9.176;2022-11-15T06:57:13;9.93;;;4.15;;
549;SDS011;20066;48.764;9.176;2022-11-15T06:59:41;9.60;;;4.95;;
549;SDS011;20066;48.764;9.176;2022-11-15T07:02:11;7.90;;;4.57;;
549;SDS011;20066;48.764;9.176;2022-11-15T07:04:41;11.77;;;4.72;;
549;SDS011;20066;48.764;9.176;2022-11-15T07:07:10;10.18;;;4.57;;
549;SDS011;20066;48.764;9.176;2022-11-15T07:09:38;16.95;;;5.75;;
549;SDS011;20066;48.764;9.176;2022-11-15T07:12:06;9.40;;;4.60;;
549;SDS011;20066;48.764;9.176;2022-11-15T07:14:34;12.77;;;6.00;;
549;SDS011;20066;48.764;9.176;2022-11-15T07:17:03;13.35;;;5.68;;
549;SDS011;20066;48.764;9.176;2022-11-15T07:19:31;14.55;;;5.95;;
549;SDS011;20066;48.764;9.176;2022-11-15T07:21:59;9.40;;;4.68;;
549;SDS011;20066;48.764;9.176;2022-11-15T07:24:28;8.85;;;5.05;;
549;SDS011;20066;48.764;9.176;2022-11-15T07:26:56;8.23;;;5.00;;
549;SDS011;20066;48.764;9.176;2022-11-15T07:29:24;13.32;;;5.30;;
549;SDS011;20066;48.764;9.176;2022-11-15T07:31:51;11.30;;;5.43;;
549;SDS011;20066;48.764;9.176;2022-11-15T07:34:19;13.43;;;5.07;;
549;SDS011;20066;48.764;9.176;2022-11-15T07:36:47;15.55;;;6.13;;
549;SDS011;20066;48.764;9.176;2022-11-15T07:39:15;11.98;;;5.35;;
549;SDS011;20066;48.764;9.176;2022-11-15T07:41:44;13.25;;;5.25;;
549;SDS011;20066;48.764;9.176;2022-11-15T07:44:14;10.75;;;5.05;;
549;SDS011;20066;48.764;9.176;2022-11-15T07:46:41;10.65;;;4.72;;
549;SDS011;20066;48.764;9.176;2022-11-15T07:49:09;7.43;;;4.18;;
549;SDS011;20066;48.764;9.176;2022-11-15T07:51:37;10.38;;;5.25;;
549;SDS011;20066;48.764;9.176;2022-11-15T07:54:05;11.70;;;4.83;;
549;SDS011;20066;48.764;9.176;2022-11-15T07:56:36;16.10;;;5.28;;
549;SDS011;20066;48.764;9.176;2022-11-15T07:59:07;12.35;;;5.20;;
549;SDS011;20066;48.764;9.176;2022-11-15T08:01:35;11.93;;;5.38;;
549;SDS011;20066;48.764;9.176;2022-11-15T08:04:03;15.95;;;5.03;;
549;SDS011;20066;48.764;9.176;2022-11-15T08:06:31;14.32;;;5.43;;
549;SDS011;20066;48.764;9.176;2022-11-15T08:08:58;14.80;;;4.37;;
549;SDS011;20066;48.764;9.176;2022-11-15T08:11:26;10.37;;;4.73;;
549;SDS011;20066;48.764;9.176;2022-11-15T08:13:54;8.33;;;5.03;;
549;SDS011;20066;48.764;9.176;2022-11-15T08:16:24;13.00;;;6.83;;
549;SDS011;20066;48.764;9.176;2022-11-15T08:18:51;9.30;;;5.40;;
549;SDS011;20066;48.764;9.176;2022-11-15T08:21:20;7.03;;;4.60;;
549;SDS011;20066;48.764;9.176;2022-11-15T08:23:48;8.73;;;4.27;;
549;SDS011;20066;48.764;9.176;2022-11-15T08:26:16;29.70;;;7.40;;
549;SDS011;20066;48.764;9.176;2022-11-15T08:28:44;14.80;;;5.33;;
549;SDS011;20066;48.764;9.176;2022-11-15T08:31:13;10.00;;;4.20;;
549;SDS011;20066;48.764;9.176;2022-11-15T08:33:44;9.70;;;4.30;;
549;SDS011;20066;48.764;9.176;2022-11-15T08:36:13;7.40;;;3.80;;
549;SDS011;20066;48.764;9.176;2022-11-15T08:38:42;10.83;;;4.90;;
549;SDS011;20066;48.764;9.176;2022-11-15T08:41:11;11.53;;;4.10;;
549;SDS011;20066;48.764;9.176;2022-11-15T08:43:40;6.47;;;3.50;;
549;SDS011;20066;48.764;9.176;2022-11-15T08:46:08;10.40;;;4.20;;
549;SDS011;20066;48.764;9.176;2022-11-15T08:48:40;10.53;;;3.57;;
549;SDS011;20066;48.764;9.176;2022-11-15T08:51:09;9.33;;;4.03;;
549;SDS011;20066;48.764;9.176;2022-11-15T08:53:37;7.23;;;3.40;;
549;SDS011;20066;48.764;9.176;2022-11-15T08:56:06;10.60;;;3.40;;
549;SDS011;20066;48.764;9.176;2022-11-15T08:58:35;7.47;;;3.27;;
549;SDS011;20066;48.764;9.176;2022-11-15T09:01:03;16.63;;;4.10;;
549;SDS011;20066;48.764;9.176;2022-11-15T09:03:32;8.07;;;4.50;;
549;SDS011;20066;48.764;9.176;2022-11-15T09:06:00;9.17;;;4.80;;
549;SDS011;20066;48.764;9.176;2022-11-15T09:08:30;9.37;;;4.63;;
549;SDS011;20066;48.764;9.176;2022-11-15T09:11:17;9.87;;;4.80;;
549;SDS011;20066;48.764;9.176;2022-11-15T09:13:47;15.07;;;4.63;;
549;SDS011;20066;48.764;9.176;2022-11-15T09:16:15;9.97;;;4.90;;
549;SDS011;20066;48.764;9.176;2022-11-15T09:18:43;9.50;;;4.43;;
549;SDS011;20066;48.764;9.176;2022-11-15T09:21:12;9.80;;;4.67;;
549;SDS011;20066;48.764;9.176;2022-11-15T09:23:41;7.50;;;4.63;;
549;SDS011;20066;48.764;9.176;2022-11-15T09:26:09;10.00;;;4.70;;
549;SDS011;20066;48.764;9.176;2022-11-15T09:28:37;9.80;;;4.97;;
549;SDS011;20066;48.764;9.176;2022-11-15T09:31:07;12.20;;;4.40;;
549;SDS011;20066;48.764;9.176;2022-11-15T09:33:35;14.90;;;5.70;;
549;SDS011;20066;48.764;9.176;2022-11-15T09:36:05;10.00;;;5.43;;
549;SDS011;20066;48.764;9.176;2022-11-15T09:38:35;10.60;;;5.80;;
549;SDS011;20066;48.764;9.176;2022-11-15T09:41:25;14.37;;;5.37;;
549;SDS011;20066;48.764;9.176;2022-11-15T09:44:07;12.73;;;5.23;;
549;SDS011;20066;48.764;9.176;2022-11-15T09:46:59;14.83;;;5.70;;
549;SDS011;20066;48.764;9.176;2022-11-15T09:49:36;11.87;;;5.73;;
549;SDS011;20066;48.764;9.176;2022-11-15T09:52:04;8.43;;;4.00;;
549;SDS011;20066;48.764;9.176;2022-11-15T09:54:35;16.53;;;4.57;;
549;SDS011;20066;48.764;9.176;2022-11-15T09:57:24;13.33;;;5.07;;
549;SDS011;20066;48.764;9.176;2022-11-15T10:00:00;18.83;;;4.90;;
549;SDS011;20066;48.764;9.176;2022-11-15T10:03:02;6.47;;;3.20;;
549;SDS011;20066;48.764;9.176;2022-11-15T10:05:37;9.47;;;4.10;;
549;SDS011;20066;48.764;9.176;2022-11-15T10:08:10;6.60;;;3.30;;
549;SDS011;20066;48.764;9.176;2022-11-15T10:10:48;8.37;;;3.27;;
549;SDS011;20066;48.764;9.176;2022-11-15T10:13:41;8.10;;;3.57;;
549;SDS011;20066;48.764;9.176;2022-11-15T10:16:15;6.80;;;2.60;;
549;SDS011;20066;48.764;9.176;2022-11-15T10:19:06;7.40;;;2.93;;
549;SDS011;20066;48.764;9.176;2022-11-15T10:21:45;9.17;;;2.67;;
549;SDS011;20066;48.764;9.176;2022-11-15T10:24:23;5.20;;;2.53;;
549;SDS011;20066;48.764;9.176;2022-11-15T10:26:54;7.13;;;2.97;;
549;SDS011;20066;48.764;9.176;2022-11-15T10:29:24;5.23;;;3.27;;
549;SDS011;20066;48.764;9.176;2022-11-15T10:31:52;5.80;;;2.80;;
549;SDS011;20066;48.764;9.176;2022-11-15T10:34:21;12.50;;;3.00;;
549;SDS011;20066;48.764;9.176;2022-11-15T10:36:54;12.90;;;2.87;;
549;SDS011;20066;48.764;9.176;2022-11-15T10:39:23;9.50;;;2.53;;
549;SDS011;20066;48.764;9.176;2022-11-15T10:41:51;5.97;;;3.00;;
549;SDS011;20066;48.764;9.176;2022-11-15T10:44:21;6.63;;;3.40;;
549;SDS011;20066;48.764;9.176;2022-11-15T10:50:06;6.00;;;3.20;;
549;SDS011;20066;48.764;9.176;2022-11-15T10:52:54;9.03;;;3.27;;
549;SDS011;20066;48.764;9.176;2022-11-15T10:55:24;4.90;;;2.30;;
549;SDS011;20066;48.764;9.176;2022-11-15T10:57:55;9.23;;;3.60;;
549;SDS011;20066;48.764;9.176;2022-11-15T11:00:36;9.93;;;4.00;;
549;SDS011;20066;48.764;9.176;2022-11-15T11:03:08;11.37;;;3.10;;
549;SDS011;20066;48.764;9.176;2022-11-15T11:06:05;10.67;;;2.93;;
549;SDS011;20066;48.764;9.176;2022-11-15T11:08:35;13.17;;;3.43;;
549;SDS011;20066;48.764;9.176;2022-11-15T11:11:04;10.40;;;3.97;;
549;SDS011;20066;48.764;9.176;2022-11-15T11:13:34;15.03;;;4.00;;
549;SDS011;20066;48.764;9.176;2022-11-15T11:16:24;12.47;;;4.37;;
549;SDS011;20066;48.764;9.176;2022-11-15T11:19:07;12.67;;;5.30;;
549;SDS011;20066;48.764;9.176;2022-11-15T11:21:55;12.30;;;4.00;;
549;SDS011;20066;48.764;9.176;2022-11-15T11:24:31;11.00;;;4.63;;
549;SDS011;20066;48.764;9.176;2022-11-15T11:27:07;9.53;;;4.20;;
549;SDS011;20066;48.764;9.176;2022-11-15T11:30:01;12.10;;;4.20;;
549;SDS011;20066;48.764;9.176;2022-11-15T11:35:30;8.67;;;4.33;;
549;SDS011;20066;48.764;9.176;2022-11-15T11:38:07;16.03;;;5.07;;
549;SDS011;20066;48.764;9.176;2022-11-15T11:40:51;11.20;;;4.83;;
549;SDS011;20066;48.764;9.176;2022-11-15T11:43:28;13.93;;;5.43;;
549;SDS011;20066;48.764;9.176;2022-11-15T11:46:06;9.37;;;4.23;;
549;SDS011;20066;48.764;9.176;2022-11-15T11:48:45;9.57;;;4.37;;
549;SDS011;20066;48.764;9.176;2022-11-15T11:51:17;10.77;;;4.30;;
549;SDS011;20066;48.764;9.176;2022-11-15T11:53:49;11.10;;;3.90;;
549;SDS011;20066;48.764;9.176;2022-11-15T11:56:24;10.23;;;3.87;;
549;SDS011;20066;48.764;9.176;2022-11-15T11:58:55;9.33;;;3.90;;
549;SDS011;20066;48.764;9.176;2022-11-15T12:01:39;11.50;;;3.43;;
549;SDS011;20066;48.764;9.176;2022-11-15T12:04:11;7.73;;;3.17;;
549;SDS011;20066;48.764;9.176;2022-11-15T12:06:45;6.17;;;2.70;;
549;SDS011;20066;48.764;9.176;2022-11-15T12:09:19;5.63;;;2.77;;
549;SDS011;20066;48.764;9.176;2022-11-15T12:11:51;10.00;;;2.87;;
549;SDS011;20066;48.764;9.176;2022-11-15T12:14:25;6.93;;;2.83;;
549;SDS011;20066;48.764;9.176;2022-11-15T12:16:58;8.80;;;3.10;;
549;SDS011;20066;48.764;9.176;2022-11-15T12:19:27;5.73;;;3.00;;
549;SDS011;20066;48.764;9.176;2022-11-15T12:21:58;5.00;;;2.70;;
549;SDS011;20066;48.764;9.176;2022-11-15T12:24:32;5.07;;;2.33;;
549;SDS011;20066;48.764;9.176;2022-11-15T12:27:04;4.80;;;1.90;;
549;SDS011;20066;48.764;9.176;2022-11-15T12:29:42;7.00;;;2.20;;
549;SDS011;20066;48.764;9.176;2022-11-15T12:32:18;6.97;;;2.07;;
549;SDS011;20066;48.764;9.176;2022-11-15T12:34:56;5.53;;;2.40;;
549;SDS011;20066;48.764;9.176;2022-11-15T12:37:46;5.23;;;2.40;;
549;SDS011;20066;48.764;9.176;2022-11-15T12:40:17;8.00;;;2.40;;
549;SDS011;20066;48.764;9.176;2022-11-15T12:42:56;4.97;;;2.30;;
549;SDS011;20066;48.764;9.176;2022-11-15T12:45:42;5.73;;;2.37;;
549;SDS011;20066;48.764;9.176;2022-11-15T12:57:28;8.13;;;2.80;;
549;SDS011;20066;48.764;9.176;2022-11-15T13:00:04;9.53;;;2.73;;
549;SDS011;20066;48.764;9.176;2022-11-15T13:02:51;4.83;;;3.13;;
549;SDS011;20066;48.764;9.176;2022-11-15T13:05:57;8.23;;;2.77;;
549;SDS011;20066;48.764;9.176;2022-11-15T13:08:37;6.07;;;3.03;;
549;SDS011;20066;48.764;9.176;2022-11-15T13:17:23;7.10;;;4.00;;
549;SDS011;20066;48.764;9.176;2022-11-15T13:19:59;7.13;;;3.20;;
549;SDS011;20066;48.764;9.176;2022-11-15T13:22:38;6.93;;;3.63;;
549;SDS011;20066;48.764;9.176;2022-11-15T13:28:36;9.10;;;3.30;;
549;SDS011;20066;48.764;9.176;2022-11-15T13:31:18;11.50;;;4.23;;
549;SDS011;20066;48.764;9.176;2022-11-15T13:33:52;6.00;;;3.40;;
549;SDS011;20066;48.764;9.176;2022-11-15T13:36:24;12.20;;;3.30;;
549;SDS011;20066;48.764;9.176;2022-11-15T13:38:56;6.13;;;2.97;;
549;SDS011;20066;48.764;9.176;2022-11-15T13:41:27;3.80;;;2.10;;
549;SDS011;20066;48.764;9.176;2022-11-15T13:43:57;5.60;;;2.40;;
549;SDS011;20066;48.764;9.176;2022-11-15T13:46:26;6.73;;;2.40;;
549;SDS011;20066;48.764;9.176;2022-11-15T13:48:56;7.70;;;2.90;;
549;SDS011;20066;48.764;9.176;2022-11-15T13:51:32;5.60;;;2.80;;
549;SDS011;20066;48.764;9.176;2022-11-15T13:54:07;6.60;;;2.83;;
549;SDS011;20066;48.764;9.176;2022-11-15T13:56:43;5.33;;;2.90;;
549;SDS011;20066;48.764;9.176;2022-11-15T13:59:14;6.50;;;3.50;;
549;SDS011;20066;48.764;9.176;2022-11-15T14:01:52;8.00;;;2.70;;
549;SDS011;20066;48.764;9.176;2022-11-15T14:04:22;5.33;;;3.20;;
549;SDS011;20066;48.764;9.176;2022-11-15T14:06:55;5.90;;;2.80;;
549;SDS011;20066;48.764;9.176;2022-11-15T14:09:29;7.10;;;3.20;;
549;SDS011;20066;48.764;9.176;2022-11-15T14:12:02;8.00;;;3.17;;
549;SDS011;20066;48.764;9.176;2022-11-15T14:14:50;6.50;;;2.90;;
549;SDS011;20066;48.764;9.176;2022-11-15T14:17:19;6.97;;;2.90;;
549;SDS011;20066;48.764;9.176;2022-11-15T14:19:50;6.50;;;3.10;;
549;SDS011;20066;48.764;9.176;2022-11-15T14:22:21;8.37;;;3.20;;
549;SDS011;20066;48.764;9.176;2022-11-15T14:27:41;8.93;;;3.60;;
549;SDS011;20066;48.764;9.176;2022-11-15T14:30:14;7.70;;;3.40;;
549;SDS011;20066;48.764;9.176;2022-11-15T14:32:44;6.87;;;2.90;;
549;SDS011;20066;48.764;9.176;2022-11-15T14:35:14;4.90;;;2.97;;
549;SDS011;20066;48.764;9.176;2022-11-15T14:37:45;6.17;;;3.10;;
549;SDS011;20066;48.764;9.176;2022-11-15T14:40:13;5.70;;;3.50;;
549;SDS011;20066;48.764;9.176;2022-11-15T14:42:44;5.37;;;3.00;;
549;SDS011;20066;48.764;9.176;2022-11-15T14:45:13;6.20;;;3.33;;
549;SDS011;20066;48.764;9.176;2022-11-15T14:47:42;8.53;;;3.93;;
549;SDS011;20066;48.764;9.176;2022-11-15T14:50:11;9.37;;;3.97;;
549;SDS011;20066;48.764;9.176;2022-11-15T14:52:39;7.97;;;3.77;;
549;SDS011;20066;48.764;9.176;2022-11-15T14:55:14;10.77;;;4.20;;
549;SDS011;20066;48.764;9.176;2022-11-15T14:57:46;10.00;;;3.33;;
549;SDS011;20066;48.764;9.176;2022-11-15T15:00:14;5.37;;;3.03;;
549;SDS011;20066;48.764;9.176;2022-11-15T15:02:44;9.03;;;3.20;;
549;SDS011;20066;48.764;9.176;2022-11-15T15:05:14;7.13;;;3.63;;
549;SDS011;20066;48.764;9.176;2022-11-15T15:07:44;8.50;;;3.90;;
549;SDS011;20066;48.764;9.176;2022-11-15T15:10:14;11.60;;;3.93;;
549;SDS011;20066;48.764;9.176;2022-11-15T15:13:03;9.97;;;4.27;;
549;SDS011;20066;48.764;9.176;2022-11-15T15:15:33;6.80;;;3.27;;
549;SDS011;20066;48.764;9.176;2022-11-15T15:18:02;8.50;;;3.73;;
549;SDS011;20066;48.764;9.176;2022-11-15T15:20:30;10.30;;;4.30;;
549;SDS011;20066;48.764;9.176;2022-11-15T15:22:58;10.33;;;4.30;;
549;SDS011;20066;48.764;9.176;2022-11-15T15:25:28;7.07;;;3.70;;
549;SDS011;20066;48.764;9.176;2022-11-15T15:27:58;5.50;;;3.13;;
549;SDS011;20066;48.764;9.176;2022-11-15T15:30:27;8.07;;;4.13;;
549;SDS011;20066;48.764;9.176;2022-11-15T15:32:57;11.40;;;3.83;;
549;SDS011;20066;48.764;9.176;2022-11-15T15:35:26;7.13;;;4.23;;
549;SDS011;20066;48.764;9.176;2022-11-15T15:37:57;9.27;;;4.90;;
549;SDS011;20066;48.764;9.176;2022-11-15T15:40:27;13.20;;;5.83;;
549;SDS011;20066;48.764;9.176;2022-11-15T15:42:57;13.00;;;6.67;;
549;SDS011;20066;48.764;9.176;2022-11-15T15:45:26;10.67;;;6.00;;
549;SDS011;20066;48.764;9.176;2022-11-15T15:47:55;9.90;;;5.00;;
549;SDS011;20066;48.764;9.176;2022-11-15T15:50:24;11.07;;;4.40;;
549;SDS011;20066;48.764;9.176;2022-11-15T15:52:53;10.37;;;5.70;;
549;SDS011;20066;48.764;9.176;2022-11-15T15:55:23;8.70;;;5.20;;
549;SDS011;20066;48.764;9.176;2022-11-15T15:57:53;10.07;;;4.37;;
549;SDS011;20066;48.764;9.176;2022-11-15T16:00:22;11.73;;;5.53;;
549;SDS011;20066;48.764;9.176;2022-11-15T16:02:51;7.20;;;3.47;;
549;SDS011;20066;48.764;9.176;2022-11-15T16:05:19;10.67;;;4.90;;
549;SDS011;20066;48.764;9.176;2022-11-15T16:07:47;11.57;;;4.47;;
549;SDS011;20066;48.764;9.176;2022-11-15T16:10:17;8.90;;;3.93;;
549;SDS011;20066;48.764;9.176;2022-11-15T16:12:46;5.87;;;3.07;;